sensor_id;sensor_type;location;lat;lon;timestamp;P1;durP1;ratioP1;P2;durP2;ratioP2
16407;SDS011;8313;49.894;8.084;2022-11-24T00:00:33;2.57;;;1.80;;
16407;SDS011;8313;49.894;8.084;2022-11-24T00:02:58;1.63;;;1.30;;
16407;SDS011;8313;49.894;8.084;2022-11-24T00:05:24;4.30;;;1.80;;
16407;SDS011;8313;49.894;8.084;2022-11-24T00:07:50;6.20;;;1.57;;
16407;SDS011;8313;49.894;8.084;2022-11-24T00:10:16;5.23;;;1.97;;
16407;SDS011;8313;49.894;8.084;2022-11-24T00:12:42;4.13;;;1.70;;
16407;SDS011;8313;49.894;8.084;2022-11-24T00:15:07;2.57;;;1.90;;
16407;SDS011;8313;49.894;8.084;2022-11-24T00:17:33;3.10;;;1.70;;
16407;SDS011;8313;49.894;8.084;2022-11-24T00:19:59;1.50;;;1.40;;
16407;SDS011;8313;49.894;8.084;2022-11-24T00:22:25;4.00;;;1.50;;
16407;SDS011;8313;49.894;8.084;2022-11-24T00:24:50;3.43;;;1.90;;
16407;SDS011;8313;49.894;8.084;2022-11-24T00:27:16;8.10;;;1.87;;
16407;SDS011;8313;49.894;8.084;2022-11-24T00:29:41;1.57;;;1.47;;
16407;SDS011;8313;49.894;8.084;2022-11-24T00:32:07;6.63;;;1.97;;
16407;SDS011;8313;49.894;8.084;2022-11-24T00:34:33;8.30;;;1.70;;
16407;SDS011;8313;49.894;8.084;2022-11-24T00:36:58;3.93;;;1.93;;
16407;SDS011;8313;49.894;8.084;2022-11-24T00:39:24;3.63;;;1.70;;
16407;SDS011;8313;49.894;8.084;2022-11-24T00:41:50;1.93;;;1.63;;
16407;SDS011;8313;49.894;8.084;2022-11-24T00:44:15;4.83;;;1.83;;
16407;SDS011;8313;49.894;8.084;2022-11-24T00:46:41;3.37;;;1.57;;
16407;SDS011;8313;49.894;8.084;2022-11-24T00:49:07;3.93;;;2.17;;
16407;SDS011;8313;49.894;8.084;2022-11-24T00:51:33;6.53;;;1.60;;
16407;SDS011;8313;49.894;8.084;2022-11-24T00:53:59;6.23;;;1.87;;
16407;SDS011;8313;49.894;8.084;2022-11-24T00:56:26;12.30;;;1.97;;
16407;SDS011;8313;49.894;8.084;2022-11-24T00:58:52;5.23;;;1.87;;
16407;SDS011;8313;49.894;8.084;2022-11-24T01:01:19;3.80;;;2.27;;
16407;SDS011;8313;49.894;8.084;2022-11-24T01:03:46;4.40;;;2.23;;
16407;SDS011;8313;49.894;8.084;2022-11-24T01:06:14;9.07;;;1.93;;
16407;SDS011;8313;49.894;8.084;2022-11-24T01:08:41;6.10;;;3.10;;
16407;SDS011;8313;49.894;8.084;2022-11-24T01:11:21;9.77;;;2.73;;
16407;SDS011;8313;49.894;8.084;2022-11-24T01:13:50;8.50;;;2.23;;
16407;SDS011;8313;49.894;8.084;2022-11-24T01:16:24;4.50;;;2.13;;
16407;SDS011;8313;49.894;8.084;2022-11-24T01:18:54;4.67;;;2.13;;
16407;SDS011;8313;49.894;8.084;2022-11-24T01:21:21;6.03;;;2.07;;
16407;SDS011;8313;49.894;8.084;2022-11-24T01:23:47;8.33;;;3.00;;
16407;SDS011;8313;49.894;8.084;2022-11-24T01:26:14;6.93;;;2.07;;
16407;SDS011;8313;49.894;8.084;2022-11-24T01:28:44;6.90;;;2.50;;
16407;SDS011;8313;49.894;8.084;2022-11-24T01:31:10;4.90;;;2.57;;
16407;SDS011;8313;49.894;8.084;2022-11-24T01:33:36;13.27;;;2.63;;
16407;SDS011;8313;49.894;8.084;2022-11-24T01:36:03;7.30;;;2.03;;
16407;SDS011;8313;49.894;8.084;2022-11-24T01:38:29;8.10;;;2.33;;
16407;SDS011;8313;49.894;8.084;2022-11-24T01:43:30;2.77;;;2.00;;
16407;SDS011;8313;49.894;8.084;2022-11-24T01:45:56;9.03;;;2.37;;
16407;SDS011;8313;49.894;8.084;2022-11-24T01:48:26;4.23;;;2.63;;
16407;SDS011;8313;49.894;8.084;2022-11-24T01:51:05;9.27;;;2.80;;
16407;SDS011;8313;49.894;8.084;2022-11-24T01:53:35;14.93;;;2.83;;
16407;SDS011;8313;49.894;8.084;2022-11-24T01:56:02;3.27;;;2.47;;
16407;SDS011;8313;49.894;8.084;2022-11-24T01:58:29;6.60;;;1.83;;
16407;SDS011;8313;49.894;8.084;2022-11-24T02:00:56;5.20;;;2.17;;
16407;SDS011;8313;49.894;8.084;2022-11-24T02:03:23;7.20;;;2.77;;
16407;SDS011;8313;49.894;8.084;2022-11-24T02:06:01;5.27;;;2.60;;
16407;SDS011;8313;49.894;8.084;2022-11-24T02:08:46;9.43;;;3.37;;
16407;SDS011;8313;49.894;8.084;2022-11-24T02:11:16;8.30;;;2.87;;
16407;SDS011;8313;49.894;8.084;2022-11-24T02:13:43;8.10;;;3.30;;
16407;SDS011;8313;49.894;8.084;2022-11-24T02:16:10;11.97;;;3.60;;
16407;SDS011;8313;49.894;8.084;2022-11-24T02:18:36;4.57;;;3.30;;
16407;SDS011;8313;49.894;8.084;2022-11-24T02:21:03;3.40;;;2.63;;
16407;SDS011;8313;49.894;8.084;2022-11-24T02:28:34;5.93;;;3.07;;
16407;SDS011;8313;49.894;8.084;2022-11-24T02:31:00;4.67;;;3.17;;
16407;SDS011;8313;49.894;8.084;2022-11-24T02:33:27;13.50;;;3.10;;
16407;SDS011;8313;49.894;8.084;2022-11-24T02:35:53;15.33;;;3.77;;
16407;SDS011;8313;49.894;8.084;2022-11-24T02:38:27;6.30;;;3.23;;
16407;SDS011;8313;49.894;8.084;2022-11-24T02:40:57;8.67;;;3.93;;
16407;SDS011;8313;49.894;8.084;2022-11-24T02:43:26;9.37;;;3.53;;
16407;SDS011;8313;49.894;8.084;2022-11-24T02:45:56;8.13;;;4.13;;
16407;SDS011;8313;49.894;8.084;2022-11-24T02:48:22;4.57;;;2.70;;
16407;SDS011;8313;49.894;8.084;2022-11-24T02:50:47;6.40;;;3.20;;
16407;SDS011;8313;49.894;8.084;2022-11-24T02:53:13;9.50;;;3.40;;
16407;SDS011;8313;49.894;8.084;2022-11-24T02:55:39;6.77;;;3.17;;
16407;SDS011;8313;49.894;8.084;2022-11-24T02:58:04;9.10;;;3.40;;
16407;SDS011;8313;49.894;8.084;2022-11-24T03:00:30;11.67;;;3.70;;
16407;SDS011;8313;49.894;8.084;2022-11-24T03:02:56;8.90;;;4.17;;
16407;SDS011;8313;49.894;8.084;2022-11-24T03:05:22;16.90;;;5.07;;
16407;SDS011;8313;49.894;8.084;2022-11-24T03:07:48;4.33;;;2.57;;
16407;SDS011;8313;49.894;8.084;2022-11-24T03:10:14;10.67;;;4.00;;
16407;SDS011;8313;49.894;8.084;2022-11-24T03:12:40;9.47;;;3.80;;
16407;SDS011;8313;49.894;8.084;2022-11-24T03:15:05;5.80;;;3.10;;
16407;SDS011;8313;49.894;8.084;2022-11-24T03:17:31;5.67;;;3.30;;
16407;SDS011;8313;49.894;8.084;2022-11-24T03:19:57;4.10;;;3.00;;
16407;SDS011;8313;49.894;8.084;2022-11-24T03:22:25;8.33;;;3.10;;
16407;SDS011;8313;49.894;8.084;2022-11-24T03:24:50;7.07;;;3.70;;
16407;SDS011;8313;49.894;8.084;2022-11-24T03:27:17;4.93;;;3.23;;
16407;SDS011;8313;49.894;8.084;2022-11-24T03:29:42;3.27;;;2.97;;
16407;SDS011;8313;49.894;8.084;2022-11-24T03:32:08;7.10;;;4.13;;
16407;SDS011;8313;49.894;8.084;2022-11-24T03:34:34;6.83;;;3.80;;
16407;SDS011;8313;49.894;8.084;2022-11-24T03:36:59;8.77;;;3.37;;
16407;SDS011;8313;49.894;8.084;2022-11-24T03:39:25;6.30;;;2.93;;
16407;SDS011;8313;49.894;8.084;2022-11-24T03:41:50;6.83;;;3.23;;
16407;SDS011;8313;49.894;8.084;2022-11-24T03:44:16;7.07;;;2.97;;
16407;SDS011;8313;49.894;8.084;2022-11-24T03:46:42;17.53;;;3.90;;
16407;SDS011;8313;49.894;8.084;2022-11-24T03:49:08;9.60;;;3.40;;
16407;SDS011;8313;49.894;8.084;2022-11-24T03:51:34;15.00;;;3.80;;
16407;SDS011;8313;49.894;8.084;2022-11-24T03:54:00;8.43;;;4.10;;
16407;SDS011;8313;49.894;8.084;2022-11-24T03:56:26;9.60;;;3.77;;
16407;SDS011;8313;49.894;8.084;2022-11-24T03:58:52;11.80;;;2.90;;
16407;SDS011;8313;49.894;8.084;2022-11-24T04:01:17;11.23;;;3.60;;
16407;SDS011;8313;49.894;8.084;2022-11-24T04:03:43;5.17;;;2.87;;
16407;SDS011;8313;49.894;8.084;2022-11-24T04:06:09;15.20;;;3.03;;
16407;SDS011;8313;49.894;8.084;2022-11-24T04:08:35;10.70;;;3.00;;
16407;SDS011;8313;49.894;8.084;2022-11-24T04:11:00;8.40;;;3.20;;
16407;SDS011;8313;49.894;8.084;2022-11-24T04:13:26;8.03;;;3.00;;
16407;SDS011;8313;49.894;8.084;2022-11-24T04:15:52;8.77;;;3.63;;
16407;SDS011;8313;49.894;8.084;2022-11-24T04:18:18;12.87;;;4.73;;
16407;SDS011;8313;49.894;8.084;2022-11-24T04:20:44;10.67;;;3.80;;
16407;SDS011;8313;49.894;8.084;2022-11-24T04:23:12;8.67;;;3.10;;
16407;SDS011;8313;49.894;8.084;2022-11-24T04:25:38;10.20;;;2.70;;
16407;SDS011;8313;49.894;8.084;2022-11-24T04:28:07;9.10;;;3.20;;
16407;SDS011;8313;49.894;8.084;2022-11-24T04:30:33;10.00;;;3.30;;
16407;SDS011;8313;49.894;8.084;2022-11-24T04:33:00;11.10;;;3.30;;
16407;SDS011;8313;49.894;8.084;2022-11-24T04:35:26;9.90;;;3.10;;
16407;SDS011;8313;49.894;8.084;2022-11-24T04:37:52;10.40;;;3.20;;
16407;SDS011;8313;49.894;8.084;2022-11-24T04:40:18;7.77;;;3.90;;
16407;SDS011;8313;49.894;8.084;2022-11-24T04:42:53;10.47;;;3.80;;
16407;SDS011;8313;49.894;8.084;2022-11-24T04:45:20;6.27;;;3.07;;
16407;SDS011;8313;49.894;8.084;2022-11-24T04:47:46;14.40;;;3.83;;
16407;SDS011;8313;49.894;8.084;2022-11-24T04:50:11;15.50;;;4.47;;
16407;SDS011;8313;49.894;8.084;2022-11-24T04:52:37;6.10;;;3.33;;
16407;SDS011;8313;49.894;8.084;2022-11-24T04:55:03;6.37;;;3.80;;
16407;SDS011;8313;49.894;8.084;2022-11-24T04:57:29;10.90;;;4.40;;
16407;SDS011;8313;49.894;8.084;2022-11-24T04:59:54;8.47;;;3.87;;
16407;SDS011;8313;49.894;8.084;2022-11-24T05:02:20;5.00;;;3.00;;
16407;SDS011;8313;49.894;8.084;2022-11-24T05:04:46;6.27;;;4.37;;
16407;SDS011;8313;49.894;8.084;2022-11-24T05:07:13;19.43;;;4.60;;
16407;SDS011;8313;49.894;8.084;2022-11-24T05:09:39;6.47;;;3.47;;
16407;SDS011;8313;49.894;8.084;2022-11-24T05:12:24;15.93;;;3.63;;
16407;SDS011;8313;49.894;8.084;2022-11-24T05:14:55;7.13;;;3.40;;
16407;SDS011;8313;49.894;8.084;2022-11-24T05:17:26;5.63;;;3.07;;
16407;SDS011;8313;49.894;8.084;2022-11-24T05:19:54;6.70;;;3.47;;
16407;SDS011;8313;49.894;8.084;2022-11-24T05:22:20;9.53;;;3.43;;
16407;SDS011;8313;49.894;8.084;2022-11-24T05:24:46;6.90;;;3.80;;
16407;SDS011;8313;49.894;8.084;2022-11-24T05:27:12;8.17;;;3.70;;
16407;SDS011;8313;49.894;8.084;2022-11-24T05:29:37;8.97;;;3.73;;
16407;SDS011;8313;49.894;8.084;2022-11-24T05:32:03;5.77;;;3.60;;
16407;SDS011;8313;49.894;8.084;2022-11-24T05:34:29;5.50;;;3.20;;
16407;SDS011;8313;49.894;8.084;2022-11-24T05:36:57;10.97;;;4.20;;
16407;SDS011;8313;49.894;8.084;2022-11-24T05:39:27;12.43;;;3.50;;
16407;SDS011;8313;49.894;8.084;2022-11-24T05:41:55;13.00;;;3.47;;
16407;SDS011;8313;49.894;8.084;2022-11-24T05:44:20;8.00;;;3.00;;
16407;SDS011;8313;49.894;8.084;2022-11-24T05:46:46;5.73;;;3.20;;
16407;SDS011;8313;49.894;8.084;2022-11-24T05:49:12;5.97;;;3.17;;
16407;SDS011;8313;49.894;8.084;2022-11-24T05:51:37;3.70;;;2.63;;
16407;SDS011;8313;49.894;8.084;2022-11-24T05:54:03;5.73;;;3.97;;
16407;SDS011;8313;49.894;8.084;2022-11-24T05:56:29;4.70;;;2.60;;
16407;SDS011;8313;49.894;8.084;2022-11-24T05:58:54;6.87;;;3.00;;
16407;SDS011;8313;49.894;8.084;2022-11-24T06:01:20;5.10;;;2.73;;
16407;SDS011;8313;49.894;8.084;2022-11-24T06:03:46;6.23;;;2.90;;
16407;SDS011;8313;49.894;8.084;2022-11-24T06:06:11;16.70;;;3.87;;
16407;SDS011;8313;49.894;8.084;2022-11-24T06:08:38;12.50;;;3.67;;
16407;SDS011;8313;49.894;8.084;2022-11-24T06:11:03;11.63;;;2.33;;
16407;SDS011;8313;49.894;8.084;2022-11-24T06:13:44;9.60;;;2.90;;
16407;SDS011;8313;49.894;8.084;2022-11-24T06:16:12;3.40;;;2.30;;
16407;SDS011;8313;49.894;8.084;2022-11-24T06:18:38;9.03;;;3.27;;
16407;SDS011;8313;49.894;8.084;2022-11-24T06:21:04;6.30;;;3.23;;
16407;SDS011;8313;49.894;8.084;2022-11-24T06:23:30;7.83;;;2.50;;
16407;SDS011;8313;49.894;8.084;2022-11-24T06:25:57;3.63;;;2.57;;
16407;SDS011;8313;49.894;8.084;2022-11-24T06:28:23;3.83;;;2.53;;
16407;SDS011;8313;49.894;8.084;2022-11-24T06:30:49;6.40;;;2.40;;
16407;SDS011;8313;49.894;8.084;2022-11-24T06:33:15;8.80;;;3.37;;
16407;SDS011;8313;49.894;8.084;2022-11-24T06:35:41;7.20;;;2.57;;
16407;SDS011;8313;49.894;8.084;2022-11-24T06:38:06;7.50;;;2.37;;
16407;SDS011;8313;49.894;8.084;2022-11-24T06:40:32;5.80;;;2.10;;
16407;SDS011;8313;49.894;8.084;2022-11-24T06:42:58;3.17;;;2.30;;
16407;SDS011;8313;49.894;8.084;2022-11-24T06:45:23;7.20;;;2.33;;
16407;SDS011;8313;49.894;8.084;2022-11-24T06:47:52;3.87;;;2.13;;
16407;SDS011;8313;49.894;8.084;2022-11-24T06:50:18;3.70;;;2.20;;
16407;SDS011;8313;49.894;8.084;2022-11-24T06:52:44;4.00;;;1.80;;
16407;SDS011;8313;49.894;8.084;2022-11-24T06:55:10;4.80;;;2.10;;
16407;SDS011;8313;49.894;8.084;2022-11-24T06:57:35;7.47;;;1.97;;
16407;SDS011;8313;49.894;8.084;2022-11-24T07:00:02;2.80;;;2.23;;
16407;SDS011;8313;49.894;8.084;2022-11-24T07:02:29;6.87;;;1.90;;
16407;SDS011;8313;49.894;8.084;2022-11-24T07:04:55;5.10;;;2.30;;
16407;SDS011;8313;49.894;8.084;2022-11-24T07:07:20;7.37;;;2.27;;
16407;SDS011;8313;49.894;8.084;2022-11-24T07:09:46;9.60;;;2.20;;
16407;SDS011;8313;49.894;8.084;2022-11-24T07:12:12;3.70;;;1.97;;
16407;SDS011;8313;49.894;8.084;2022-11-24T07:14:37;3.23;;;2.47;;
16407;SDS011;8313;49.894;8.084;2022-11-24T07:17:03;2.10;;;1.90;;
16407;SDS011;8313;49.894;8.084;2022-11-24T07:19:29;1.97;;;1.77;;
16407;SDS011;8313;49.894;8.084;2022-11-24T07:21:55;4.07;;;2.10;;
16407;SDS011;8313;49.894;8.084;2022-11-24T07:24:21;6.23;;;2.00;;
16407;SDS011;8313;49.894;8.084;2022-11-24T07:26:47;8.63;;;2.53;;
16407;SDS011;8313;49.894;8.084;2022-11-24T07:29:12;3.43;;;2.03;;
16407;SDS011;8313;49.894;8.084;2022-11-24T07:31:38;4.60;;;2.13;;
16407;SDS011;8313;49.894;8.084;2022-11-24T07:34:04;5.30;;;1.97;;
16407;SDS011;8313;49.894;8.084;2022-11-24T07:36:30;3.93;;;2.10;;
16407;SDS011;8313;49.894;8.084;2022-11-24T07:38:55;3.60;;;1.57;;
16407;SDS011;8313;49.894;8.084;2022-11-24T07:41:21;5.60;;;1.73;;
16407;SDS011;8313;49.894;8.084;2022-11-24T07:43:47;8.03;;;2.43;;
16407;SDS011;8313;49.894;8.084;2022-11-24T07:46:14;3.97;;;2.40;;
16407;SDS011;8313;49.894;8.084;2022-11-24T07:48:41;7.80;;;2.57;;
16407;SDS011;8313;49.894;8.084;2022-11-24T07:51:06;4.07;;;1.57;;
16407;SDS011;8313;49.894;8.084;2022-11-24T07:53:32;6.43;;;2.40;;
16407;SDS011;8313;49.894;8.084;2022-11-24T07:55:59;4.03;;;2.03;;
16407;SDS011;8313;49.894;8.084;2022-11-24T07:58:27;4.27;;;2.40;;
16407;SDS011;8313;49.894;8.084;2022-11-24T08:00:53;5.60;;;2.33;;
16407;SDS011;8313;49.894;8.084;2022-11-24T08:03:19;3.80;;;1.60;;
16407;SDS011;8313;49.894;8.084;2022-11-24T08:05:55;3.90;;;1.73;;
16407;SDS011;8313;49.894;8.084;2022-11-24T08:08:21;2.57;;;1.20;;
16407;SDS011;8313;49.894;8.084;2022-11-24T08:10:47;4.37;;;1.70;;
16407;SDS011;8313;49.894;8.084;2022-11-24T08:13:13;8.30;;;2.40;;
16407;SDS011;8313;49.894;8.084;2022-11-24T08:15:39;5.10;;;2.00;;
16407;SDS011;8313;49.894;8.084;2022-11-24T08:18:07;6.13;;;2.30;;
16407;SDS011;8313;49.894;8.084;2022-11-24T08:20:33;4.37;;;1.70;;
16407;SDS011;8313;49.894;8.084;2022-11-24T08:22:59;11.47;;;2.90;;
16407;SDS011;8313;49.894;8.084;2022-11-24T08:25:25;7.00;;;1.83;;
16407;SDS011;8313;49.894;8.084;2022-11-24T08:27:56;8.10;;;1.80;;
16407;SDS011;8313;49.894;8.084;2022-11-24T08:30:23;15.17;;;2.40;;
16407;SDS011;8313;49.894;8.084;2022-11-24T08:32:48;3.57;;;1.73;;
16407;SDS011;8313;49.894;8.084;2022-11-24T08:35:14;5.83;;;2.07;;
16407;SDS011;8313;49.894;8.084;2022-11-24T08:37:40;3.53;;;1.80;;
16407;SDS011;8313;49.894;8.084;2022-11-24T08:40:05;3.30;;;1.60;;
16407;SDS011;8313;49.894;8.084;2022-11-24T08:42:32;4.63;;;1.80;;
16407;SDS011;8313;49.894;8.084;2022-11-24T08:44:57;2.40;;;2.20;;
16407;SDS011;8313;49.894;8.084;2022-11-24T08:47:23;3.73;;;1.60;;
16407;SDS011;8313;49.894;8.084;2022-11-24T08:49:48;3.13;;;1.70;;
16407;SDS011;8313;49.894;8.084;2022-11-24T08:52:14;4.80;;;2.00;;
16407;SDS011;8313;49.894;8.084;2022-11-24T08:54:40;4.47;;;2.20;;
16407;SDS011;8313;49.894;8.084;2022-11-24T08:57:08;3.50;;;1.80;;
16407;SDS011;8313;49.894;8.084;2022-11-24T08:59:34;7.83;;;2.33;;
16407;SDS011;8313;49.894;8.084;2022-11-24T09:02:00;3.47;;;1.90;;
16407;SDS011;8313;49.894;8.084;2022-11-24T09:04:26;4.50;;;2.00;;
16407;SDS011;8313;49.894;8.084;2022-11-24T09:06:51;4.60;;;1.83;;
16407;SDS011;8313;49.894;8.084;2022-11-24T09:09:17;5.90;;;2.10;;
16407;SDS011;8313;49.894;8.084;2022-11-24T09:11:43;5.63;;;1.30;;
16407;SDS011;8313;49.894;8.084;2022-11-24T09:14:08;2.77;;;2.40;;
16407;SDS011;8313;49.894;8.084;2022-11-24T09:16:34;5.07;;;1.40;;
16407;SDS011;8313;49.894;8.084;2022-11-24T09:19:01;4.97;;;1.73;;
16407;SDS011;8313;49.894;8.084;2022-11-24T09:21:29;4.07;;;1.80;;
16407;SDS011;8313;49.894;8.084;2022-11-24T09:23:57;5.43;;;1.83;;
16407;SDS011;8313;49.894;8.084;2022-11-24T09:26:27;4.90;;;1.17;;
16407;SDS011;8313;49.894;8.084;2022-11-24T09:28:54;5.20;;;2.67;;
16407;SDS011;8313;49.894;8.084;2022-11-24T09:31:23;7.60;;;1.63;;
16407;SDS011;8313;49.894;8.084;2022-11-24T09:33:50;2.37;;;1.40;;
16407;SDS011;8313;49.894;8.084;2022-11-24T09:36:16;6.90;;;3.00;;
16407;SDS011;8313;49.894;8.084;2022-11-24T09:38:42;4.23;;;2.80;;
16407;SDS011;8313;49.894;8.084;2022-11-24T09:50:20;3.40;;;2.40;;
16407;SDS011;8313;49.894;8.084;2022-11-24T09:55:18;3.10;;;1.67;;
16407;SDS011;8313;49.894;8.084;2022-11-24T10:00:49;5.77;;;2.80;;
16407;SDS011;8313;49.894;8.084;2022-11-24T10:03:19;5.43;;;2.47;;
16407;SDS011;8313;49.894;8.084;2022-11-24T10:05:53;3.80;;;1.87;;
16407;SDS011;8313;49.894;8.084;2022-11-24T10:11:29;4.07;;;1.20;;
16407;SDS011;8313;49.894;8.084;2022-11-24T10:16:51;3.70;;;1.70;;
16407;SDS011;8313;49.894;8.084;2022-11-24T10:22:07;5.23;;;1.63;;
16407;SDS011;8313;49.894;8.084;2022-11-24T10:24:57;1.50;;;1.40;;
16407;SDS011;8313;49.894;8.084;2022-11-24T10:27:36;2.30;;;1.60;;
16407;SDS011;8313;49.894;8.084;2022-11-24T10:32:45;7.00;;;1.70;;
16407;SDS011;8313;49.894;8.084;2022-11-24T10:35:14;2.40;;;1.67;;
16407;SDS011;8313;49.894;8.084;2022-11-24T10:37:44;5.90;;;1.90;;
16407;SDS011;8313;49.894;8.084;2022-11-24T10:42:48;1.70;;;1.60;;
16407;SDS011;8313;49.894;8.084;2022-11-24T10:45:17;5.27;;;1.40;;
16407;SDS011;8313;49.894;8.084;2022-11-24T10:47:46;5.43;;;1.10;;
16407;SDS011;8313;49.894;8.084;2022-11-24T10:50:14;6.20;;;1.40;;
16407;SDS011;8313;49.894;8.084;2022-11-24T10:52:46;6.30;;;1.40;;
16407;SDS011;8313;49.894;8.084;2022-11-24T10:55:20;1.70;;;1.10;;
16407;SDS011;8313;49.894;8.084;2022-11-24T10:57:46;2.50;;;1.20;;
16407;SDS011;8313;49.894;8.084;2022-11-24T11:02:44;7.10;;;5.83;;
16407;SDS011;8313;49.894;8.084;2022-11-24T11:10:44;10.90;;;5.83;;
16407;SDS011;8313;49.894;8.084;2022-11-24T11:13:27;7.63;;;3.50;;
16407;SDS011;8313;49.894;8.084;2022-11-24T11:15:55;2.70;;;1.70;;
16407;SDS011;8313;49.894;8.084;2022-11-24T11:18:24;8.30;;;1.77;;
16407;SDS011;8313;49.894;8.084;2022-11-24T11:20:56;4.73;;;1.73;;
16407;SDS011;8313;49.894;8.084;2022-11-24T11:23:30;4.37;;;1.60;;
16407;SDS011;8313;49.894;8.084;2022-11-24T11:28:56;16.97;;;7.80;;
16407;SDS011;8313;49.894;8.084;2022-11-24T11:31:31;29.77;;;14.30;;
16407;SDS011;8313;49.894;8.084;2022-11-24T11:34:01;29.80;;;14.70;;
16407;SDS011;8313;49.894;8.084;2022-11-24T11:36:33;32.17;;;14.90;;
16407;SDS011;8313;49.894;8.084;2022-11-24T11:38:59;16.93;;;9.53;;
16407;SDS011;8313;49.894;8.084;2022-11-24T11:41:39;8.90;;;5.00;;
16407;SDS011;8313;49.894;8.084;2022-11-24T11:46:57;3.63;;;1.97;;
16407;SDS011;8313;49.894;8.084;2022-11-24T11:49:23;6.20;;;1.47;;
16407;SDS011;8313;49.894;8.084;2022-11-24T12:00:28;2.70;;;1.10;;
16407;SDS011;8313;49.894;8.084;2022-11-24T12:08:23;5.23;;;1.70;;
16407;SDS011;8313;49.894;8.084;2022-11-24T12:13:41;2.83;;;1.43;;
16407;SDS011;8313;49.894;8.084;2022-11-24T12:16:14;2.10;;;0.90;;
16407;SDS011;8313;49.894;8.084;2022-11-24T12:19:39;5.50;;;1.30;;
16407;SDS011;8313;49.894;8.084;2022-11-24T12:22:14;4.30;;;1.30;;
16407;SDS011;8313;49.894;8.084;2022-11-24T12:25:15;9.67;;;1.33;;
16407;SDS011;8313;49.894;8.084;2022-11-24T12:30:50;3.17;;;0.97;;
16407;SDS011;8313;49.894;8.084;2022-11-24T12:36:32;3.33;;;1.47;;
16407;SDS011;8313;49.894;8.084;2022-11-24T12:39:34;2.70;;;0.80;;
16407;SDS011;8313;49.894;8.084;2022-11-24T12:45:15;1.90;;;0.90;;
16407;SDS011;8313;49.894;8.084;2022-11-24T12:50:35;1.80;;;1.10;;
16407;SDS011;8313;49.894;8.084;2022-11-24T12:53:13;4.63;;;1.50;;
16407;SDS011;8313;49.894;8.084;2022-11-24T12:55:53;10.70;;;4.67;;
16407;SDS011;8313;49.894;8.084;2022-11-24T12:58:31;38.77;;;16.10;;
16407;SDS011;8313;49.894;8.084;2022-11-24T13:04:02;81.63;;;38.37;;
16407;SDS011;8313;49.894;8.084;2022-11-24T13:09:19;57.30;;;30.23;;
16407;SDS011;8313;49.894;8.084;2022-11-24T13:11:45;28.03;;;16.37;;
16407;SDS011;8313;49.894;8.084;2022-11-24T13:14:17;77.00;;;33.37;;
16407;SDS011;8313;49.894;8.084;2022-11-24T13:17:30;78.50;;;38.83;;
16407;SDS011;8313;49.894;8.084;2022-11-24T13:20:15;51.03;;;28.90;;
16407;SDS011;8313;49.894;8.084;2022-11-24T13:22:45;31.43;;;18.47;;
16407;SDS011;8313;49.894;8.084;2022-11-24T13:25:17;23.30;;;9.50;;
16407;SDS011;8313;49.894;8.084;2022-11-24T13:27:47;9.73;;;4.27;;
16407;SDS011;8313;49.894;8.084;2022-11-24T13:35:26;4.20;;;1.77;;
16407;SDS011;8313;49.894;8.084;2022-11-24T13:37:52;2.73;;;1.40;;
16407;SDS011;8313;49.894;8.084;2022-11-24T13:53:31;9.47;;;2.13;;
16407;SDS011;8313;49.894;8.084;2022-11-24T13:58:46;1.33;;;1.20;;
16407;SDS011;8313;49.894;8.084;2022-11-24T14:01:35;3.77;;;1.20;;
16407;SDS011;8313;49.894;8.084;2022-11-24T14:06:46;1.47;;;1.37;;
16407;SDS011;8313;49.894;8.084;2022-11-24T14:09:24;4.50;;;1.50;;
16407;SDS011;8313;49.894;8.084;2022-11-24T14:11:55;3.43;;;1.33;;
16407;SDS011;8313;49.894;8.084;2022-11-24T14:14:21;2.87;;;1.43;;
16407;SDS011;8313;49.894;8.084;2022-11-24T14:16:49;7.33;;;1.50;;
16407;SDS011;8313;49.894;8.084;2022-11-24T14:19:39;2.70;;;2.10;;
16407;SDS011;8313;49.894;8.084;2022-11-24T14:22:16;2.90;;;2.13;;
16407;SDS011;8313;49.894;8.084;2022-11-24T14:24:57;8.27;;;2.00;;
16407;SDS011;8313;49.894;8.084;2022-11-24T14:27:28;1.47;;;1.37;;
16407;SDS011;8313;49.894;8.084;2022-11-24T14:30:00;5.50;;;1.70;;
16407;SDS011;8313;49.894;8.084;2022-11-24T14:32:37;4.30;;;1.50;;
16407;SDS011;8313;49.894;8.084;2022-11-24T14:37:51;7.73;;;1.73;;
16407;SDS011;8313;49.894;8.084;2022-11-24T14:45:48;5.20;;;3.07;;
16407;SDS011;8313;49.894;8.084;2022-11-24T14:48:15;3.53;;;2.07;;
16407;SDS011;8313;49.894;8.084;2022-11-24T14:50:44;3.57;;;2.17;;
16407;SDS011;8313;49.894;8.084;2022-11-24T14:53:11;5.83;;;2.47;;
16407;SDS011;8313;49.894;8.084;2022-11-24T14:55:39;7.47;;;2.00;;
16407;SDS011;8313;49.894;8.084;2022-11-24T15:01:17;3.60;;;1.43;;
16407;SDS011;8313;49.894;8.084;2022-11-24T15:03:43;5.37;;;2.30;;
16407;SDS011;8313;49.894;8.084;2022-11-24T15:06:16;15.23;;;6.53;;
16407;SDS011;8313;49.894;8.084;2022-11-24T15:08:44;62.50;;;25.53;;
16407;SDS011;8313;49.894;8.084;2022-11-24T15:11:12;27.00;;;11.37;;
16407;SDS011;8313;49.894;8.084;2022-11-24T15:13:39;6.90;;;3.97;;
16407;SDS011;8313;49.894;8.084;2022-11-24T15:16:15;6.20;;;4.80;;
16407;SDS011;8313;49.894;8.084;2022-11-24T15:18:44;8.80;;;6.27;;
16407;SDS011;8313;49.894;8.084;2022-11-24T15:21:11;15.57;;;7.63;;
16407;SDS011;8313;49.894;8.084;2022-11-24T15:23:38;20.73;;;11.10;;
16407;SDS011;8313;49.894;8.084;2022-11-24T15:28:32;19.23;;;10.27;;
16407;SDS011;8313;49.894;8.084;2022-11-24T15:30:59;11.93;;;7.70;;
16407;SDS011;8313;49.894;8.084;2022-11-24T15:33:25;5.97;;;3.87;;
16407;SDS011;8313;49.894;8.084;2022-11-24T15:35:51;4.80;;;3.23;;
16407;SDS011;8313;49.894;8.084;2022-11-24T15:38:17;6.20;;;2.70;;
16407;SDS011;8313;49.894;8.084;2022-11-24T15:40:43;4.30;;;3.13;;
16407;SDS011;8313;49.894;8.084;2022-11-24T15:45:39;10.23;;;4.83;;
16407;SDS011;8313;49.894;8.084;2022-11-24T15:48:05;17.73;;;10.47;;
16407;SDS011;8313;49.894;8.084;2022-11-24T15:50:31;17.63;;;12.80;;
16407;SDS011;8313;49.894;8.084;2022-11-24T15:53:02;13.40;;;11.20;;
16407;SDS011;8313;49.894;8.084;2022-11-24T15:55:29;14.30;;;10.33;;
16407;SDS011;8313;49.894;8.084;2022-11-24T15:57:59;44.57;;;23.87;;
16407;SDS011;8313;49.894;8.084;2022-11-24T16:00:25;106.93;;;47.93;;
16407;SDS011;8313;49.894;8.084;2022-11-24T16:02:51;138.50;;;70.43;;
16407;SDS011;8313;49.894;8.084;2022-11-24T16:05:17;127.50;;;65.60;;
16407;SDS011;8313;49.894;8.084;2022-11-24T16:07:43;127.10;;;58.83;;
16407;SDS011;8313;49.894;8.084;2022-11-24T16:10:15;141.03;;;66.37;;
16407;SDS011;8313;49.894;8.084;2022-11-24T16:12:48;151.07;;;67.10;;
16407;SDS011;8313;49.894;8.084;2022-11-24T16:15:14;196.90;;;89.50;;
16407;SDS011;8313;49.894;8.084;2022-11-24T16:17:40;114.43;;;53.13;;
16407;SDS011;8313;49.894;8.084;2022-11-24T16:20:05;62.90;;;34.00;;
16407;SDS011;8313;49.894;8.084;2022-11-24T16:22:31;49.30;;;27.80;;
16407;SDS011;8313;49.894;8.084;2022-11-24T16:24:57;44.83;;;25.70;;
16407;SDS011;8313;49.894;8.084;2022-11-24T16:27:23;55.50;;;30.10;;
16407;SDS011;8313;49.894;8.084;2022-11-24T16:29:48;52.80;;;31.90;;
16407;SDS011;8313;49.894;8.084;2022-11-24T16:32:14;29.33;;;19.10;;
16407;SDS011;8313;49.894;8.084;2022-11-24T16:34:40;18.90;;;14.43;;
16407;SDS011;8313;49.894;8.084;2022-11-24T16:37:05;22.27;;;14.03;;
16407;SDS011;8313;49.894;8.084;2022-11-24T16:39:31;21.33;;;11.67;;
16407;SDS011;8313;49.894;8.084;2022-11-24T16:41:56;13.17;;;8.80;;
16407;SDS011;8313;49.894;8.084;2022-11-24T16:44:22;13.23;;;6.97;;
16407;SDS011;8313;49.894;8.084;2022-11-24T16:46:48;10.07;;;6.57;;
16407;SDS011;8313;49.894;8.084;2022-11-24T16:49:13;11.30;;;6.33;;
16407;SDS011;8313;49.894;8.084;2022-11-24T16:51:39;10.80;;;5.90;;
16407;SDS011;8313;49.894;8.084;2022-11-24T16:54:07;6.97;;;4.57;;
16407;SDS011;8313;49.894;8.084;2022-11-24T16:56:33;9.00;;;4.60;;
16407;SDS011;8313;49.894;8.084;2022-11-24T16:58:58;11.07;;;5.47;;
16407;SDS011;8313;49.894;8.084;2022-11-24T17:01:24;11.87;;;5.43;;
16407;SDS011;8313;49.894;8.084;2022-11-24T17:03:50;5.90;;;4.40;;
16407;SDS011;8313;49.894;8.084;2022-11-24T17:06:15;12.30;;;4.83;;